createdAt,value
2022-09-12T00:00:32.699Z,99603.59
2022-09-12T00:03:30.875Z,99598.59
2022-09-12T00:06:33.547Z,99589.81
2022-09-12T00:09:16.482Z,99602.66
2022-09-12T00:12:04.606Z,99599.00
2022-09-12T00:14:52.896Z,99600.59
2022-09-12T00:17:27.553Z,99609.72
2022-09-12T00:20:18.634Z,99605.25
2022-09-12T00:22:59.535Z,99607.41
2022-09-12T00:25:37.934Z,99609.16
2022-09-12T00:28:35.669Z,99614.41
2022-09-12T00:31:31.915Z,99609.56
2022-09-12T00:34:20.777Z,99602.94
2022-09-12T00:36:55.634Z,99610.97
2022-09-12T00:39:28.510Z,99602.66
2022-09-12T00:42:31.007Z,99610.75
2022-09-12T00:45:41.902Z,99613.22
2022-09-12T00:48:38.258Z,99591.53
2022-09-12T00:51:17.997Z,99613.69
2022-09-12T00:56:56.384Z,99606.13
2022-09-12T01:02:49.604Z,99600.19
2022-09-12T01:05:17.603Z,99600.31
2022-09-12T01:07:49.374Z,99597.84
2022-09-12T01:10:30.971Z,99609.31
2022-09-12T01:13:10.710Z,99599.94
2022-09-12T01:15:57.208Z,99595.22
2022-09-12T01:19:04.508Z,99589.31
2022-09-12T01:25:18.596Z,99598.75
2022-09-12T01:28:19.194Z,99599.00
2022-09-12T01:31:34.178Z,99606.59
2022-09-12T01:37:37.892Z,99605.88
2022-09-12T01:40:51.373Z,99601.34
2022-09-12T01:43:36.416Z,99599.72
2022-09-12T01:46:58.178Z,99594.03
2022-09-12T01:49:54.477Z,99599.34
2022-09-12T01:52:41.776Z,99585.72
2022-09-12T01:55:31.149Z,99610.66
2022-09-12T01:58:13.469Z,99616.38
2022-09-12T02:01:09.362Z,99616.22
2022-09-12T02:03:45.125Z,99589.47
2022-09-12T02:06:20.625Z,99616.84
2022-09-12T02:08:56.173Z,99615.63
2022-09-12T02:11:23.568Z,99611.63
2022-09-12T02:14:03.743Z,99605.50
2022-09-12T02:16:39.834Z,99606.53
2022-09-12T02:19:16.077Z,99599.41
2022-09-12T02:21:52.536Z,99598.31
2022-09-12T02:24:23.348Z,99606.31
2022-09-12T02:26:58.437Z,99608.88
2022-09-12T02:29:26.289Z,99600.75
2022-09-12T02:31:59.635Z,99603.38
2022-09-12T02:34:39.921Z,99609.28
2022-09-12T02:37:46.306Z,99608.94
2022-09-12T02:40:16.091Z,99608.34
2022-09-12T02:42:43.771Z,99608.91
2022-09-12T02:45:15.192Z,99609.97
2022-09-12T02:48:05.989Z,99615.72
2022-09-12T02:50:33.398Z,99606.53
2022-09-12T02:53:06.990Z,99616.41
2022-09-12T02:55:43.330Z,99598.56
2022-09-12T02:58:17.920Z,99613.84
2022-09-12T03:01:24.612Z,99614.00
2022-09-12T03:04:34.060Z,99618.25
2022-09-12T03:07:27.895Z,99627.38
2022-09-12T03:10:02.440Z,99618.44
2022-09-12T03:12:44.836Z,99623.97
2022-09-12T03:15:28.544Z,99621.25
2022-09-12T03:18:06.782Z,99621.47
2022-09-12T03:21:10.256Z,99619.13
2022-09-12T03:23:41.734Z,99624.19
2022-09-12T03:26:35.191Z,99629.19
2022-09-12T03:29:06.532Z,99625.47
2022-09-12T03:31:42.618Z,99631.75
2022-09-12T03:34:16.217Z,99635.13
2022-09-12T03:36:51.909Z,99633.75
2022-09-12T03:39:26.441Z,99624.59
2022-09-12T03:41:55.446Z,99627.69
2022-09-12T03:44:24.780Z,99617.56
2022-09-12T03:46:52.942Z,99623.47
2022-09-12T03:49:25.359Z,99633.50
2022-09-12T03:51:55.749Z,99628.97
2022-09-12T03:54:28.796Z,99634.00
2022-09-12T03:56:59.441Z,99632.00
2022-09-12T03:59:27.745Z,99630.72
2022-09-12T04:02:01.395Z,99627.91
2022-09-12T04:04:30.756Z,99628.66
2022-09-12T04:09:48.140Z,99638.03
2022-09-12T04:12:26.518Z,99621.66
2022-09-12T04:14:56.531Z,99624.31
2022-09-12T04:17:31.143Z,99628.22
2022-09-12T04:20:20.554Z,99632.34
2022-09-12T04:22:56.748Z,99641.56
2022-09-12T04:25:32.691Z,99641.63
2022-09-12T04:28:16.604Z,99634.00
2022-09-12T04:30:52.822Z,99638.00
2022-09-12T04:33:20.165Z,99624.53
2022-09-12T04:35:48.061Z,99638.94
2022-09-12T04:38:21.803Z,99645.09
2022-09-12T04:40:50.295Z,99641.25
2022-09-12T04:43:19.267Z,99631.91
2022-09-12T04:45:46.489Z,99643.97
2022-09-12T04:48:16.143Z,99651.66
2022-09-12T04:50:44.109Z,99657.81
2022-09-12T04:53:11.480Z,99662.03
2022-09-12T04:55:38.650Z,99651.13
2022-09-12T04:58:07.885Z,99657.34
2022-09-12T05:00:38.685Z,99661.13
2022-09-12T05:03:14.228Z,99665.81
2022-09-12T05:05:42.139Z,99673.72
2022-09-12T05:08:13.816Z,99670.94
2022-09-12T05:11:21.573Z,99680.19
2022-09-12T05:14:06.338Z,99677.88
2022-09-12T05:17:10.870Z,99681.84
2022-09-12T05:20:17.609Z,99685.16
2022-09-12T05:23:06.111Z,99666.31
2022-09-12T05:25:59.777Z,99693.09
2022-09-12T05:28:49.318Z,99689.56
2022-09-12T05:31:42.735Z,99697.09
2022-09-12T05:34:11.610Z,99696.84
2022-09-12T05:36:59.051Z,99697.31
2022-09-12T05:39:34.637Z,99692.22
2022-09-12T05:42:17.323Z,99690.56
2022-09-12T05:45:02.394Z,99692.28
2022-09-12T05:47:44.017Z,99689.91
2022-09-12T05:50:25.621Z,99692.53
2022-09-12T05:53:24.754Z,99688.75
2022-09-12T05:56:14.848Z,99690.25
2022-09-12T05:58:48.137Z,99692.34
2022-09-12T06:01:21.351Z,99690.09
2022-09-12T06:03:55.222Z,99694.34
2022-09-12T06:06:27.811Z,99686.84
2022-09-12T06:09:08.326Z,99686.03
2022-09-12T06:11:46.791Z,99692.00
2022-09-12T06:14:23.248Z,99693.72
2022-09-12T06:17:04.623Z,99691.50
2022-09-12T06:19:34.912Z,99689.66
2022-09-12T06:22:35.035Z,99700.38
2022-09-12T06:25:12.742Z,99682.59
2022-09-12T06:27:49.920Z,99672.66
2022-09-12T06:30:27.734Z,99696.06
2022-09-12T06:32:57.856Z,99691.28
2022-09-12T06:35:26.794Z,99699.31
2022-09-12T06:38:01.923Z,99696.28
2022-09-12T06:40:44.195Z,99693.22
2022-09-12T06:43:19.964Z,99691.84
2022-09-12T06:45:55.257Z,99661.41
2022-09-12T06:48:30.444Z,99695.63
2022-09-12T06:51:32.106Z,99695.59
2022-09-12T06:54:11.736Z,99706.22
2022-09-12T06:56:53.765Z,99695.19
2022-09-12T06:59:27.755Z,99704.94
2022-09-12T07:02:02.989Z,99705.53
2022-09-12T07:04:58.403Z,99714.41
2022-09-12T07:07:31.540Z,99710.63
2022-09-12T07:10:02.689Z,99719.88
2022-09-12T07:12:54.925Z,99716.69
2022-09-12T07:15:40.390Z,99711.34
2022-09-12T07:18:16.360Z,99717.97
2022-09-12T07:20:58.080Z,99722.78
2022-09-12T07:23:30.197Z,99720.78
2022-09-12T07:26:07.317Z,99710.81
2022-09-12T07:28:42.417Z,99725.25
2022-09-12T07:31:24.727Z,99728.78
2022-09-12T07:33:59.965Z,99720.66
2022-09-12T07:36:43.189Z,99723.94
2022-09-12T07:39:52.355Z,99728.63
2022-09-12T07:42:32.125Z,99728.78
2022-09-12T07:45:06.191Z,99732.63
2022-09-12T07:47:42.327Z,99724.16
2022-09-12T07:50:19.330Z,99728.47
2022-09-12T07:53:04.169Z,99739.97
2022-09-12T07:55:37.671Z,99744.28
2022-09-12T07:58:34.766Z,99748.06
2022-09-12T08:01:29.410Z,99729.22
2022-09-12T08:04:05.377Z,99740.44
2022-09-12T08:06:44.694Z,99742.91
2022-09-12T08:09:32.152Z,99740.97
2022-09-12T08:12:07.723Z,99742.19
2022-09-12T08:15:45.166Z,99731.00
2022-09-12T08:18:30.446Z,99721.47
2022-09-12T08:21:55.991Z,99742.56
2022-09-12T08:24:32.310Z,99733.16
2022-09-12T08:27:15.968Z,99735.22
2022-09-12T08:30:00.088Z,99729.22
2022-09-12T08:32:32.005Z,99738.75
2022-09-12T08:35:09.947Z,99715.28
2022-09-12T08:37:41.982Z,99723.63
2022-09-12T08:40:21.082Z,99726.66
2022-09-12T08:43:33.863Z,99720.25
2022-09-12T08:46:15.234Z,99722.84
2022-09-12T08:48:46.341Z,99713.34
2022-09-12T08:51:47.273Z,99709.56
2022-09-12T08:54:36.372Z,99714.56
2022-09-12T08:57:12.772Z,99705.63
2022-09-12T08:59:50.928Z,99709.13
2022-09-12T09:06:05.374Z,99705.16
2022-09-12T09:12:27.176Z,99689.38
2022-09-12T09:16:04.503Z,99704.66
2022-09-12T09:18:39.361Z,99700.25
2022-09-12T09:22:04.110Z,99695.00
2022-09-12T09:24:50.503Z,99683.59
2022-09-12T09:27:41.592Z,99693.47
2022-09-12T09:30:43.381Z,99688.94
2022-09-12T09:33:21.568Z,99689.34
2022-09-12T09:36:35.846Z,99691.03
2022-09-12T09:42:37.920Z,99688.19
2022-09-12T09:45:20.748Z,99695.84
2022-09-12T09:48:18.290Z,99686.25
2022-09-12T09:51:20.742Z,99686.31
2022-09-12T09:54:23.961Z,99685.97
2022-09-12T09:56:56.954Z,99700.97
2022-09-12T09:59:35.615Z,99695.75
2022-09-12T10:02:26.739Z,99698.88
2022-09-12T10:05:01.417Z,99695.44
2022-09-12T10:07:29.447Z,99697.53
2022-09-12T10:10:22.894Z,99691.13
2022-09-12T10:13:08.707Z,99684.44
2022-09-12T10:15:38.801Z,99692.41
2022-09-12T10:18:11.059Z,99690.38
2022-09-12T10:20:47.573Z,99688.09
2022-09-12T10:23:37.781Z,99698.28
2022-09-12T10:26:12.510Z,99688.78
2022-09-12T10:28:55.218Z,99688.91
2022-09-12T10:31:29.554Z,99702.47
2022-09-12T10:34:00.296Z,99692.44
2022-09-12T10:36:41.014Z,99692.66
2022-09-12T10:39:18.698Z,99690.97
2022-09-12T10:41:47.207Z,99695.31
2022-09-12T10:44:26.457Z,99689.84
2022-09-12T10:46:57.970Z,99687.06
2022-09-12T10:49:40.407Z,99685.56
2022-09-12T10:52:28.563Z,99674.06
2022-09-12T10:54:57.854Z,99666.38
2022-09-12T10:57:31.905Z,99672.97
2022-09-12T10:59:59.627Z,99655.34
2022-09-12T11:02:47.799Z,99687.16
2022-09-12T11:05:56.565Z,99687.38
2022-09-12T11:08:40.491Z,99683.44
2022-09-12T11:11:50.519Z,99688.16
2022-09-12T11:15:11.460Z,99683.53
2022-09-12T11:18:02.064Z,99679.34
2022-09-12T11:20:32.386Z,99680.50
2022-09-12T11:23:41.984Z,99680.50
2022-09-12T11:26:54.532Z,99670.84
2022-09-12T11:29:45.826Z,99671.59
2022-09-12T11:32:56.518Z,99668.22
2022-09-12T11:35:32.687Z,99683.53
2022-09-12T11:38:31.665Z,99672.19
2022-09-12T11:41:32.322Z,99674.47
2022-09-12T11:44:40.047Z,99669.75
2022-09-12T11:47:14.055Z,99672.75
2022-09-12T11:49:47.707Z,99673.03
2022-09-12T11:52:29.451Z,99676.94
2022-09-12T11:55:20.037Z,99672.94
2022-09-12T11:58:01.947Z,99668.03
2022-09-12T12:01:00.157Z,99676.91
2022-09-12T12:03:31.394Z,99669.13
2022-09-12T12:06:28.977Z,99654.28
2022-09-12T12:09:00.540Z,99660.66
2022-09-12T12:11:34.672Z,99648.13
2022-09-12T12:14:14.926Z,99646.00
2022-09-12T12:16:43.673Z,99658.81
2022-09-12T12:19:15.908Z,99650.66
2022-09-12T12:21:49.609Z,99641.97
2022-09-12T12:24:26.241Z,99649.63
2022-09-12T12:26:58.961Z,99647.16
2022-09-12T12:29:44.391Z,99651.81
2022-09-12T12:32:16.656Z,99647.22
2022-09-12T12:34:49.220Z,99648.47
2022-09-12T12:37:18.930Z,99639.94
2022-09-12T12:39:50.967Z,99641.09
2022-09-12T12:42:50.103Z,99635.75
2022-09-12T12:45:20.876Z,99630.56
2022-09-12T12:48:09.957Z,99638.38
2022-09-12T12:51:35.977Z,99635.41
2022-09-12T12:54:34.364Z,99633.94
2022-09-12T12:57:16.472Z,99634.00
2022-09-12T12:59:49.235Z,99633.13
2022-09-12T13:02:28.312Z,99628.72
2022-09-12T13:04:58.474Z,99623.38
2022-09-12T13:07:32.974Z,99612.72
2022-09-12T13:10:02.320Z,99619.13
2022-09-12T13:12:47.163Z,99616.69
2022-09-12T13:15:33.887Z,99616.22
2022-09-12T13:18:05.395Z,99617.16
2022-09-12T13:20:38.645Z,99617.72
2022-09-12T13:23:29.825Z,99623.84
2022-09-12T13:26:00.004Z,99616.56
2022-09-12T13:28:30.148Z,99623.63
2022-09-12T13:31:04.759Z,99611.03
2022-09-12T13:34:01.282Z,99615.31
2022-09-12T13:36:43.277Z,99607.22
2022-09-12T13:39:29.375Z,99612.75
2022-09-12T13:42:36.415Z,99615.59
2022-09-12T13:45:27.054Z,99606.53
2022-09-12T13:48:02.151Z,99616.97
2022-09-12T13:51:04.066Z,99615.13
2022-09-12T13:53:54.108Z,99612.44
2022-09-12T13:56:22.919Z,99614.47
2022-09-12T13:58:54.930Z,99607.25
2022-09-12T14:01:36.746Z,99609.97
2022-09-12T14:04:49.462Z,99612.75
2022-09-12T14:08:16.976Z,99610.44
2022-09-12T14:10:50.551Z,99604.13
2022-09-12T14:13:26.337Z,99605.22
2022-09-12T14:15:58.378Z,99604.81
2022-09-12T14:18:29.841Z,99588.97
2022-09-12T14:21:09.578Z,99591.38
2022-09-12T14:23:42.732Z,99600.66
2022-09-12T14:26:13.741Z,99602.41
2022-09-12T14:28:44.636Z,99603.63
2022-09-12T14:31:35.773Z,99595.28
2022-09-12T14:34:17.292Z,99595.38
2022-09-12T14:36:52.440Z,99598.28
2022-09-12T14:39:34.277Z,99601.66
2022-09-12T14:42:18.408Z,99600.38
2022-09-12T14:45:15.688Z,99601.06
2022-09-12T14:47:50.426Z,99589.56
2022-09-12T14:50:22.481Z,99585.41
2022-09-12T14:53:25.986Z,99585.50
2022-09-12T14:55:59.535Z,99586.06
2022-09-12T14:58:28.490Z,99577.13
2022-09-12T15:01:09.751Z,99578.28
2022-09-12T15:03:53.428Z,99579.94
2022-09-12T15:06:31.746Z,99572.31
2022-09-12T15:09:08.646Z,99570.72
2022-09-12T15:11:36.129Z,99567.69
2022-09-12T15:14:14.080Z,99577.56
2022-09-12T15:16:42.281Z,99569.06
2022-09-12T15:19:09.810Z,99567.00
2022-09-12T15:21:37.058Z,99562.19
2022-09-12T15:24:05.010Z,99566.59
2022-09-12T15:26:32.223Z,99566.31
2022-09-12T15:28:59.434Z,99563.34
2022-09-12T15:31:29.605Z,99563.91
2022-09-12T15:33:59.534Z,99555.72
2022-09-12T15:41:37.075Z,99557.84
2022-09-12T15:44:07.923Z,99559.50
2022-09-12T15:46:35.438Z,99560.59
2022-09-12T15:49:03.050Z,99560.09
2022-09-12T15:51:30.608Z,99545.25
2022-09-12T15:54:04.673Z,99561.13
2022-09-12T15:56:33.633Z,99560.50
2022-09-12T15:59:07.440Z,99556.66
2022-09-12T16:01:36.656Z,99554.28
2022-09-12T16:04:28.536Z,99554.59
2022-09-12T16:06:57.021Z,99544.16
2022-09-12T16:09:25.568Z,99558.50
2022-09-12T16:11:54.768Z,99545.84
2022-09-12T16:14:23.592Z,99554.09
2022-09-12T16:16:56.142Z,99552.44
2022-09-12T16:19:23.675Z,99545.84
2022-09-12T16:21:51.487Z,99550.25
2022-09-12T16:24:20.345Z,99550.00
2022-09-12T16:26:48.099Z,99553.28
2022-09-12T16:29:18.518Z,99545.84
2022-09-12T16:31:46.031Z,99547.22
2022-09-12T16:34:13.879Z,99523.34
2022-09-12T16:36:41.105Z,99543.13
2022-09-12T16:39:08.397Z,99547.81
2022-09-12T16:41:38.309Z,99546.69
2022-09-12T16:44:10.284Z,99546.97
2022-09-12T16:46:39.637Z,99538.47
2022-09-12T16:49:09.758Z,99546.41
2022-09-12T16:51:37.063Z,99551.31
2022-09-12T16:54:05.551Z,99555.72
2022-09-12T16:56:34.877Z,99553.28
2022-09-12T16:59:02.183Z,99560.66
2022-09-12T17:01:35.006Z,99542.00
2022-09-12T17:04:23.620Z,99553.53
2022-09-12T17:06:51.443Z,99563.69
2022-09-12T17:09:18.753Z,99567.25
2022-09-12T17:11:47.886Z,99567.16
2022-09-12T17:14:15.340Z,99563.63
2022-09-12T17:16:50.748Z,99568.84
2022-09-12T17:19:23.101Z,99580.66
2022-09-12T17:21:50.321Z,99566.56
2022-09-12T17:24:19.177Z,99575.69
2022-09-12T17:26:47.041Z,99573.50
2022-09-12T17:29:15.145Z,99574.13
2022-09-12T17:31:44.013Z,99576.34
2022-09-12T17:34:14.646Z,99574.69
2022-09-12T17:36:45.718Z,99576.06
2022-09-12T17:39:13.846Z,99579.34
2022-09-12T17:41:42.920Z,99578.22
2022-09-12T17:44:15.233Z,99587.03
2022-09-12T17:46:43.476Z,99605.66
2022-09-12T17:49:16.561Z,99596.47
2022-09-12T17:51:44.381Z,99591.25
2022-09-12T17:54:15.813Z,99597.31
2022-09-12T17:56:45.555Z,99601.41
2022-09-12T17:59:21.687Z,99588.53
2022-09-12T18:02:07.775Z,99607.38
2022-09-12T18:04:35.737Z,99604.41
2022-09-12T18:07:06.072Z,99616.91
2022-09-12T18:09:33.748Z,99618.34
2022-09-12T18:12:01.645Z,99623.81
2022-09-12T18:14:29.622Z,99629.84
2022-09-12T18:16:57.366Z,99627.16
2022-09-12T18:19:25.137Z,99626.91
2022-09-12T18:21:52.545Z,99629.03
2022-09-12T18:24:20.910Z,99625.13
2022-09-12T18:26:48.470Z,99632.84
2022-09-12T18:29:17.029Z,99633.31
2022-09-12T18:31:45.134Z,99622.91
2022-09-12T18:34:13.950Z,99635.22
2022-09-12T18:36:42.865Z,99637.53
2022-09-12T18:39:11.254Z,99629.66
2022-09-12T18:41:39.218Z,99636.66
2022-09-12T18:44:07.384Z,99626.63
2022-09-12T18:46:35.349Z,99636.28
2022-09-12T18:49:03.865Z,99637.97
2022-09-12T18:51:36.060Z,99628.47
2022-09-12T18:54:11.957Z,99632.16
2022-09-12T18:56:41.055Z,99641.69
2022-09-12T18:59:12.877Z,99637.28
2022-09-12T19:01:41.670Z,99630.63
2022-09-12T19:04:12.121Z,99626.41
2022-09-12T19:06:42.685Z,99637.88
2022-09-12T19:09:12.609Z,99638.66
2022-09-12T19:12:18.212Z,99633.28
2022-09-12T19:15:27.834Z,99627.22
2022-09-12T19:18:24.439Z,99634.72
2022-09-12T19:21:54.674Z,99633.34
2022-09-12T19:24:36.007Z,99630.03
2022-09-12T19:27:05.765Z,99631.13
2022-09-12T19:29:35.901Z,99632.72
2022-09-12T19:32:12.700Z,99635.78
2022-09-12T19:34:40.351Z,99632.84
2022-09-12T19:37:17.203Z,99637.44
2022-09-12T19:39:50.158Z,99634.03
2022-09-12T19:42:17.579Z,99641.34
2022-09-12T19:44:46.016Z,99635.66
2022-09-12T19:47:13.520Z,99643.88
2022-09-12T19:49:40.785Z,99639.16
2022-09-12T19:52:08.443Z,99636.47
2022-09-12T19:54:36.078Z,99633.16
2022-09-12T19:57:03.601Z,99639.91
2022-09-12T19:59:30.897Z,99641.31
2022-09-12T20:01:58.677Z,99624.94
2022-09-12T20:04:27.630Z,99631.59
2022-09-12T20:06:57.641Z,99636.22
2022-09-12T20:09:25.209Z,99634.41
2022-09-12T20:11:53.284Z,99637.53
2022-09-12T20:14:23.702Z,99634.25
2022-09-12T20:16:51.439Z,99636.28
2022-09-12T20:19:18.754Z,99636.56
2022-09-12T20:21:46.356Z,99640.38
2022-09-12T20:24:17.548Z,99635.63
2022-09-12T20:26:45.233Z,99634.72
2022-09-12T20:29:25.304Z,99634.97
2022-09-12T20:32:03.414Z,99635.41
2022-09-12T20:37:41.422Z,99643.00
2022-09-12T20:40:10.998Z,99636.91
2022-09-12T20:42:51.944Z,99629.94
2022-09-12T20:45:21.649Z,99621.66
2022-09-12T20:47:51.506Z,99639.19
2022-09-12T20:50:26.871Z,99636.31
2022-09-12T20:52:58.264Z,99627.22
2022-09-12T20:55:26.630Z,99636.88
2022-09-12T20:57:53.927Z,99642.84
2022-09-12T21:00:22.457Z,99638.09
2022-09-12T21:02:52.678Z,99636.38
2022-09-12T21:05:24.529Z,99631.41
2022-09-12T21:08:11.491Z,99634.91
2022-09-12T21:10:45.877Z,99629.91
2022-09-12T21:13:15.848Z,99639.19
2022-09-12T21:15:44.287Z,99632.91
2022-09-12T21:18:14.881Z,99628.88
2022-09-12T21:20:44.441Z,99639.38
2022-09-12T21:23:12.282Z,99642.19
2022-09-12T21:25:41.586Z,99633.31
2022-09-12T21:28:09.209Z,99640.09
2022-09-12T21:30:36.551Z,99637.72
2022-09-12T21:33:09.217Z,99642.19
2022-09-12T21:35:45.234Z,99638.78
2022-09-12T21:38:13.272Z,99650.13
2022-09-12T21:40:44.323Z,99645.00
2022-09-12T21:43:15.300Z,99639.44
2022-09-12T21:45:44.839Z,99644.47
2022-09-12T21:48:23.466Z,99645.06
2022-09-12T21:50:57.436Z,99647.25
2022-09-12T21:53:29.161Z,99636.56
2022-09-12T21:56:02.986Z,99633.28
2022-09-12T21:58:30.690Z,99642.84
2022-09-12T22:01:02.259Z,99642.28
2022-09-12T22:03:30.389Z,99639.69
2022-09-12T22:06:00.611Z,99636.56
2022-09-12T22:08:32.910Z,99633.00
2022-09-12T22:11:03.211Z,99631.19
2022-09-12T22:13:32.638Z,99626.47
2022-09-12T22:16:03.497Z,99638.22
2022-09-12T22:18:36.824Z,99636.66
2022-09-12T22:21:13.239Z,99635.75
2022-09-12T22:24:00.741Z,99633.16
2022-09-12T22:26:36.964Z,99624.47
2022-09-12T22:29:05.970Z,99620.91
2022-09-12T22:31:34.078Z,99625.94
2022-09-12T22:34:04.020Z,99627.41
2022-09-12T22:36:38.162Z,99627.72
2022-09-12T22:39:07.741Z,99624.47
2022-09-12T22:41:36.553Z,99620.38
2022-09-12T22:44:04.944Z,99628.09
2022-09-12T22:46:37.196Z,99626.53
2022-09-12T22:49:07.825Z,99631.25
2022-09-12T22:51:37.515Z,99625.94
2022-09-12T22:54:12.227Z,99620.06
2022-09-12T22:56:40.437Z,99608.56
2022-09-12T22:59:10.001Z,99614.53
2022-09-12T23:01:38.658Z,99601.72
2022-09-12T23:04:07.790Z,99616.09
2022-09-12T23:06:50.193Z,99615.06
2022-09-12T23:09:35.805Z,99614.38
2022-09-12T23:16:07.236Z,99604.16
2022-09-12T23:18:36.713Z,99602.00
2022-09-12T23:21:17.658Z,99599.84
2022-09-12T23:23:49.250Z,99597.97
2022-09-12T23:26:29.026Z,99596.75
2022-09-12T23:29:04.309Z,99607.41
2022-09-12T23:31:38.373Z,99598.41
2022-09-12T23:34:12.189Z,99601.84
2022-09-12T23:36:50.706Z,99595.50
2022-09-12T23:39:21.356Z,99598.38
2022-09-12T23:42:00.468Z,99598.13
2022-09-12T23:44:29.553Z,99594.84
2022-09-12T23:47:01.763Z,99591.84
2022-09-12T23:49:35.874Z,99596.03
2022-09-12T23:52:09.864Z,99588.53
2022-09-12T23:54:39.441Z,99584.34
2022-09-12T23:57:13.809Z,99591.34
2022-09-12T23:59:47.152Z,99597.25
